High Roller — WDD2839 — position and weather

sailwx.info

Track history (hours):
 
Tides and Currents Weather Stations Pressure Air Temp Water Temp Dewpoint Dewpoint Depression Visibility Wind Speed Wind Dir Waves Ship Positions

High Roller

Owner: HAYS TUG & LAUNCH SERVICE INC, WALLINGFORD, PA. More information available from US FCC via Universal Licensing System and Coast Guard Vessel Documentation Center.

Last reported at 2018-Aug-14 19:00 UTC. Time now 2018-Aug-14 19:27 UTC.
Position N 39°59' W 075°05'.

Length 33 m.

Type: Tug. MMSI: 367120550.

Date/timePositionNaut miles runAvg speedWind from/ knotsBaromVisibWave heightAir tempDewpointWater temp
2018-Aug-14 19:00N 39°59' W 075°05'0 0.0
2018-Aug-14 18:29N 39°59' W 075°05'0 0.0
2018-Aug-14 18:00N 39°59' W 075°05'0 0.0
2018-Aug-14 17:31N 39°59' W 075°05'1 1.0
2018-Aug-14 17:00N 39°59' W 075°05'4 7.5
2018-Aug-14 16:30N 39°56' W 075°08'3 6.4
2018-Aug-14 16:00N 39°53' W 075°10'3 6.8
2018-Aug-14 15:31N 39°51' W 075°14'4 7.7
2018-Aug-14 15:00N 39°51' W 075°19'3 6.5
2018-Aug-14 14:30N 39°50' W 075°23'1 1.3
2018-Aug-14 14:01N 39°50' W 075°22'2 5.0
2018-Aug-14 13:31N 39°51' W 075°19'1 2.8
2018-Aug-14 13:00N 39°51' W 075°18'0 0.4
2018-Aug-14 12:30N 39°51' W 075°18'0 0.1
2018-Aug-14 12:00N 39°51' W 075°18'0 0.5
2018-Aug-14 11:30N 39°51' W 075°18'0 0.0
2018-Aug-14 11:00N 39°51' W 075°18'2 3.6
2018-Aug-14 10:30N 39°51' W 075°16'4 8.3
2018-Aug-14 10:01N 39°54' W 075°12'1 2.9
2018-Aug-14 09:30N 39°53' W 075°10'4 7.8
2018-Aug-14 09:00N 39°57' W 075°08'4 7.2
2018-Aug-14 08:30N 39°59' W 075°05'0 0.5
2018-Aug-14 08:00N 39°59' W 075°05'4 8.6
2018-Aug-14 07:30N 39°55' W 075°08'4 7.1
2018-Aug-14 07:01N 39°53' W 075°12'1 2.3
2018-Aug-14 06:30N 39°54' W 075°13'1 1.6
2018-Aug-14 06:01N 39°54' W 075°12'1 0.1
2018-Aug-13 21:12N 39°54' W 075°13'0 0.2
2018-Aug-13 21:00N 39°54' W 075°13'1 2.6
2018-Aug-13 20:30N 39°53' W 075°12'3 5.2
2018-Aug-13 20:00N 39°53' W 075°08'3 5.0
2018-Aug-13 19:31N 39°56' W 075°08'2 4.2
2018-Aug-13 19:00N 39°58' W 075°07'2 4.2
2018-Aug-13 18:30N 39°59' W 075°05'0 0.8
2018-Aug-13 18:00N 39°59' W 075°05'0 0.0
2018-Aug-13 17:30N 39°59' W 075°05'0 0.0
2018-Aug-13 17:00N 39°59' W 075°05'0 0.0
2018-Aug-13 16:30N 39°59' W 075°05'0 0.0
2018-Aug-13 15:59N 39°59' W 075°05'0 0.3
2018-Aug-13 15:30N 39°59' W 075°05'4 7.8
2018-Aug-13 15:00N 39°56' W 075°08'3 6.9
2018-Aug-13 14:30N 39°53' W 075°10'4 8.1
2018-Aug-13 14:00N 39°51' W 075°15'2 4.7
2018-Aug-13 13:30N 39°51' W 075°18'0 0.0
2018-Aug-13 13:00N 39°51' W 075°18'0 0.0
2018-Aug-13 12:30N 39°51' W 075°18'0 0.0
2018-Aug-13 12:00N 39°51' W 075°18'0 0.0
2018-Aug-13 11:30N 39°51' W 075°18'0 0.0
2018-Aug-13 11:00N 39°51' W 075°18'3 5.1
2018-Aug-13 10:30N 39°51' W 075°15'3 0.5
2018-Aug-13 03:20N 39°54' W 075°12'3 8.3
2018-Aug-13 03:00N 39°52' W 075°14'510.8
2018-Aug-13 02:30N 39°51' W 075°21'510.8
2018-Aug-13 02:00N 39°48' W 075°27'5 9.3
2018-Aug-13 01:30N 39°44' W 075°30'4 8.8
2018-Aug-13 01:00N 39°40' W 075°32'4 7.6
2018-Aug-13 00:30N 39°36' W 075°34'4 8.0
2018-Aug-13 00:00N 39°32' W 075°33'4 7.4
2018-Aug-12 23:30N 39°29' W 075°33'0 0.9
2018-Aug-12 23:00N 39°29' W 075°33'1 1.5
2018-Aug-12 22:30N 39°30' W 075°33'4 7.1
2018-Aug-12 22:00N 39°33' W 075°33'5 9.4
2018-Aug-12 21:30N 39°38' W 075°34'5 9.8
2018-Aug-12 21:00N 39°42' W 075°31'5 9.3
2018-Aug-12 20:30N 39°46' W 075°28'4 8.4
2018-Aug-12 20:00N 39°49' W 075°24'4 7.8
2018-Aug-12 19:30N 39°51' W 075°20'3 6.8
2018-Aug-12 19:00N 39°51' W 075°16'3 6.6
2018-Aug-12 18:30N 39°53' W 075°12'3 5.5
2018-Aug-12 18:00N 39°53' W 075°08'3 5.6
2018-Aug-12 17:30N 39°56' W 075°08'1 2.7
2018-Aug-12 17:00N 39°57' W 075°08'0 0.0
2018-Aug-12 14:08N 39°57' W 075°08'0 0.0
2018-Aug-12 14:00N 39°57' W 075°08'0 0.0
2018-Aug-12 13:30N 39°57' W 075°08'0 0.0
2018-Aug-12 13:01N 39°57' W 075°08'0 0.6
2018-Aug-12 12:30N 39°57' W 075°08'3 5.8
2018-Aug-12 12:00N 39°59' W 075°05'0 0.5
2018-Aug-12 11:30N 39°59' W 075°05'2 4.8
2018-Aug-12 11:00N 39°58' W 075°07'3 5.6
2018-Aug-12 10:30N 39°55' W 075°08'3 5.1
2018-Aug-12 10:00N 39°53' W 075°09'3 5.6
2018-Aug-12 09:30N 39°54' W 075°13'1 1.5
2018-Aug-12 09:00N 39°54' W 075°12'0 0.0
2018-Aug-11 22:22N 39°54' W 075°12'1 2.2
2018-Aug-11 22:00N 39°54' W 075°13'1 2.6
2018-Aug-11 21:31N 39°53' W 075°12'3 6.9
2018-Aug-11 21:00N 39°55' W 075°08'4 7.6
2018-Aug-11 20:30N 39°58' W 075°07'2 3.4
2018-Aug-11 20:00N 39°59' W 075°05'4 7.5
2018-Aug-11 19:30N 39°56' W 075°08'4 7.4
2018-Aug-11 19:00N 39°53' W 075°10'5 9.3
2018-Aug-11 18:30N 39°51' W 075°16'2 3.6
2018-Aug-11 18:00N 39°51' W 075°18'0 0.2
2018-Aug-11 17:31N 39°51' W 075°18'0 0.0
2018-Aug-11 17:00N 39°51' W 075°18'1 2.4
2018-Aug-11 16:31N 39°51' W 075°16'4 7.3
2018-Aug-11 16:00N 39°53' W 075°12'3 6.5
2018-Aug-11 15:30N 39°54' W 075°08'4 7.3
2018-Aug-11 15:00N 39°58' W 075°08'3 5.8
2018-Aug-11 14:30N 39°59' W 075°05'0 0.0
2018-Aug-11 14:00N 39°59' W 075°05'0 0.0
2018-Aug-11 13:30N 39°59' W 075°05'0 0.0
2018-Aug-11 13:00N 39°59' W 075°05'0 0.0
2018-Aug-11 12:30N 39°59' W 075°05'0 0.0
2018-Aug-11 12:00N 39°59' W 075°05'0 0.0
2018-Aug-11 11:30N 39°59' W 075°05'0 0.0
2018-Aug-11 11:00N 39°59' W 075°05'3 5.4
2018-Aug-11 10:30N 39°58' W 075°08'3 6.7
2018-Aug-11 10:00N 39°54' W 075°08'3 5.8
2018-Aug-11 09:30N 39°53' W 075°11'2 3.4
2018-Aug-11 09:00N 39°54' W 075°13'1 0.1
2018-Aug-11 02:20N 39°54' W 075°12'2 7.2
2018-Aug-11 02:00N 39°52' W 075°14'510.3
2018-Aug-11 01:30N 39°51' W 075°20'0 0.3
2018-Aug-11 01:00N 39°51' W 075°20'0 0.8
2018-Aug-11 00:30N 39°51' W 075°20'0 0.7
2018-Aug-11 00:00N 39°51' W 075°19'1 2.0
2018-Aug-10 23:30N 39°51' W 075°18'3 5.4
2018-Aug-10 23:00N 39°51' W 075°14'3 5.9
2018-Aug-10 22:30N 39°53' W 075°12'0 0.0
2018-Aug-10 22:01N 39°53' W 075°12'0 0.0
2018-Aug-10 21:30N 39°53' W 075°12'0 0.4
2018-Aug-10 21:00N 39°54' W 075°12'1 2.5
2018-Aug-10 20:30N 39°52' W 075°12'4 8.1
2018-Aug-10 20:00N 39°51' W 075°17'1 2.6
2018-Aug-10 19:31N 39°51' W 075°19'2 4.8
2018-Aug-10 19:00N 39°49' W 075°21'2 3.2
2018-Aug-10 18:30N 39°51' W 075°20'2 4.0
2018-Aug-10 18:00N 39°51' W 075°18'0 0.1
2018-Aug-10 17:30N 39°51' W 075°18'2 4.4
2018-Aug-10 17:00N 39°51' W 075°15'3 6.8
2018-Aug-10 16:30N 39°53' W 075°12'0 0.0
2018-Aug-09 20:39N 39°54' W 075°12'0 0.0
2018-Aug-09 20:30N 39°54' W 075°12'1 1.4
2018-Aug-09 20:00N 39°54' W 075°13'1 3.0
2018-Aug-09 19:30N 39°53' W 075°11'3 6.3
2018-Aug-09 19:00N 39°55' W 075°08'4 8.1
2018-Aug-09 18:31N 39°58' W 075°06'1 2.3
2018-Aug-09 18:00N 39°59' W 075°05'0 0.0
2018-Aug-09 17:30N 39°59' W 075°05'1 2.3
2018-Aug-09 17:00N 39°58' W 075°06'4 8.6
2018-Aug-09 16:31N 39°54' W 075°08'5 9.1
2018-Aug-09 16:00N 39°52' W 075°13'4 7.9
2018-Aug-09 15:30N 39°51' W 075°18'4 7.7
2018-Aug-09 15:00N 39°50' W 075°23'0 0.3
2018-Aug-09 14:31N 39°50' W 075°23'0 0.1
2018-Aug-09 14:00N 39°50' W 075°23'2 3.3
2018-Aug-09 13:30N 39°51' W 075°21'2 3.7
2018-Aug-09 13:00N 39°51' W 075°19'2 4.2
2018-Aug-09 12:30N 39°51' W 075°16'3 5.1
2018-Aug-09 12:00N 39°52' W 075°13'0 0.3
2018-Aug-09 11:30N 39°52' W 075°13'510.0
2018-Aug-09 11:01N 39°55' W 075°08'5 8.8
2018-Aug-09 10:28N 39°59' W 075°05'2 3.6
2018-Aug-09 10:00N 39°58' W 075°07'3 6.8
2018-Aug-09 09:30N 39°55' W 075°08'3 5.9
2018-Aug-09 09:00N 39°53' W 075°11'2 3.9
2018-Aug-09 08:29N 39°54' W 075°13'0 0.0
2018-Aug-09 07:59N 39°54' W 075°13'0 0.0
2018-Aug-09 07:29N 39°54' W 075°13'0 0.0
2018-Aug-09 06:59N 39°54' W 075°13'0 0.0
2018-Aug-09 06:29N 39°54' W 075°13'0 0.0
2018-Aug-09 05:59N 39°54' W 075°13'0 0.0
2018-Aug-09 05:29N 39°54' W 075°13'0 0.0
2018-Aug-09 04:56N 39°54' W 075°13'0 0.0
2018-Aug-09 04:29N 39°54' W 075°13'0 0.0
2018-Aug-09 03:59N 39°54' W 075°13'0 0.0
2018-Aug-09 03:29N 39°54' W 075°13'0 0.0
2018-Aug-09 03:00N 39°54' W 075°13'1 1.3
2018-Aug-09 02:30N 39°54' W 075°12'2 4.3
2018-Aug-09 02:00N 39°53' W 075°09'2 4.7
2018-Aug-09 01:31N 39°55' W 075°08'3 5.1
2018-Aug-09 01:00N 39°58' W 075°08'2 4.9
2018-Aug-09 00:30N 39°59' W 075°05'0 0.8
2018-Aug-08 23:57N 39°59' W 075°05'0 0.0
2018-Aug-08 23:30N 39°59' W 075°05'0 0.0
2018-Aug-08 22:57N 39°59' W 075°05'0 0.0
2018-Aug-08 22:30N 39°59' W 075°05'0 0.0
2018-Aug-08 22:00N 39°59' W 075°05'0 0.0
2018-Aug-08 21:30N 39°59' W 075°05'0 0.0
2018-Aug-08 21:00N 39°59' W 075°05'0 0.0
2018-Aug-08 20:30N 39°59' W 075°05'0 0.0
2018-Aug-08 20:00N 39°59' W 075°05'0 0.0
2018-Aug-08 19:30N 39°59' W 075°05'0 0.0
2018-Aug-08 19:00N 39°59' W 075°05'0 0.0
2018-Aug-08 18:30N 39°59' W 075°05'2 4.4
2018-Aug-08 18:00N 39°58' W 075°07'3 6.1
2018-Aug-08 17:30N 39°55' W 075°08'3 5.6
2018-Aug-08 17:00N 39°53' W 075°10'2 4.3
2018-Aug-08 16:30N 39°54' W 075°13'3 5.5
2018-Aug-08 16:00N 39°51' W 075°14'3 5.2
2018-Aug-08 15:30N 39°51' W 075°18'0 0.2
2018-Aug-08 15:00N 39°51' W 075°18'0 0.1
2018-Aug-08 14:30N 39°51' W 075°18'0 0.1
2018-Aug-08 14:00N 39°51' W 075°18'0 0.1
2018-Aug-08 13:31N 39°51' W 075°18'2 4.9
2018-Aug-08 13:00N 39°51' W 075°15'2 3.2
2018-Aug-08 12:30N 39°52' W 075°13'2 3.5
2018-Aug-08 12:01N 39°51' W 075°15'4 7.6
2018-Aug-08 11:30N 39°51' W 075°20'3 5.6
2018-Aug-08 11:01N 39°50' W 075°23'0 0.0
2018-Aug-08 10:31N 39°50' W 075°23'0 0.0
2018-Aug-08 10:01N 39°50' W 075°23'0 0.0
2018-Aug-08 09:30N 39°50' W 075°23'1 1.9
2018-Aug-08 09:01N 39°50' W 075°22'611.4
2018-Aug-08 08:30N 39°51' W 075°15'3 0.2
2018-Aug-07 18:16N 39°54' W 075°12'0 0.1
2018-Aug-07 18:00N 39°54' W 075°12'0 0.0
2018-Aug-07 17:29N 39°54' W 075°12'0 0.0
2018-Aug-07 17:00N 39°54' W 075°12'0 0.0
2018-Aug-07 16:31N 39°54' W 075°12'0 0.6
2018-Aug-07 16:01N 39°54' W 075°12'0 0.0
2018-Aug-07 15:30N 39°54' W 075°12'1 1.4
2018-Aug-07 15:00N 39°54' W 075°13'0 0.0
2018-Aug-07 14:30N 39°54' W 075°13'0 0.0
2018-Aug-07 14:00N 39°54' W 075°13'0 0.0
2018-Aug-07 13:30N 39°54' W 075°13'0 0.0
2018-Aug-07 13:00N 39°54' W 075°13'2 3.1
2018-Aug-07 12:31N 39°52' W 075°13'4 8.1
2018-Aug-07 12:00N 39°51' W 075°18'0 0.1
2018-Aug-07 11:31N 39°51' W 075°18'2 4.8
2018-Aug-07 11:00N 39°51' W 075°15'3 6.0
2018-Aug-07 10:30N 39°53' W 075°11'3 5.6
2018-Aug-07 10:00N 39°54' W 075°08'3 6.7
2018-Aug-07 09:30N 39°57' W 075°08'3 6.1
2018-Aug-07 09:00N 39°54' W 075°08'3 6.2
2018-Aug-07 08:30N 39°53' W 075°12'1 2.0
2018-Aug-07 08:00N 39°54' W 075°13'2 3.6
2018-Aug-07 07:30N 39°53' W 075°11'3 6.3
2018-Aug-07 07:00N 39°55' W 075°08'4 7.1
2018-Aug-07 06:30N 39°58' W 075°06'1 2.6
2018-Aug-07 05:59N 39°59' W 075°05'0 0.0
2018-Aug-07 05:29N 39°59' W 075°05'0 0.0
2018-Aug-07 04:59N 39°59' W 075°05'0 0.0
2018-Aug-07 04:29N 39°59' W 075°05'0 0.0
2018-Aug-07 03:59N 39°59' W 075°05'0 0.0
2018-Aug-07 03:29N 39°59' W 075°05'0 0.0
2018-Aug-07 02:58N 39°59' W 075°05'0 0.0
2018-Aug-07 02:29N 39°59' W 075°05'0 0.0
2018-Aug-07 01:59N 39°59' W 075°05'0 0.0
2018-Aug-07 01:30N 39°59' W 075°05'3 5.8
2018-Aug-07 01:00N 39°57' W 075°08'0 0.1
2018-Aug-07 00:29N 39°57' W 075°08'0 0.0
2018-Aug-07 00:01N 39°57' W 075°08'2 4.5
2018-Aug-06 23:30N 39°55' W 075°08'4 7.5
2018-Aug-06 23:00N 39°53' W 075°12'5 9.4
2018-Aug-06 22:30N 39°51' W 075°17'4 7.2
2018-Aug-06 22:00N 39°50' W 075°22'0 0.5
2018-Aug-06 21:30N 39°50' W 075°22'510.2
2018-Aug-06 21:01N 39°47' W 075°27'611.8
2018-Aug-06 20:31N 39°42' W 075°31'611.6
2018-Aug-06 20:00N 39°37' W 075°34'4 7.7
2018-Aug-06 19:30N 39°34' W 075°31'2 4.1
2018-Aug-06 19:00N 39°34' W 075°29'1 2.4
2018-Aug-06 18:30N 39°34' W 075°30'2 3.8
2018-Aug-06 18:00N 39°33' W 075°32'3 5.0
2018-Aug-06 17:30N 39°35' W 075°33'3 5.8
2018-Aug-06 17:00N 39°38' W 075°34'3 6.7
2018-Aug-06 16:30N 39°40' W 075°32'3 6.6
2018-Aug-06 16:00N 39°44' W 075°30'3 6.2
2018-Aug-06 15:30N 39°46' W 075°28'3 6.1
2018-Aug-06 15:00N 39°48' W 075°25'3 5.9
2018-Aug-06 14:30N 39°50' W 075°22'3 5.3
2018-Aug-06 14:00N 39°51' W 075°19'2 4.6
2018-Aug-06 13:31N 39°51' W 075°16'2 4.2
2018-Aug-06 13:00N 39°52' W 075°14'2 3.7
2018-Aug-06 12:30N 39°53' W 075°12'1 2.8
2018-Aug-06 12:00N 39°53' W 075°10'0 0.0
2018-Aug-06 11:30N 39°53' W 075°10'0 0.0
2018-Aug-06 11:00N 39°53' W 075°10'0 0.9
2018-Aug-06 10:30N 39°53' W 075°09'0 0.0
2018-Aug-06 10:00N 39°53' W 075°09'2 4.3
2018-Aug-06 09:30N 39°55' W 075°08'4 8.5
2018-Aug-06 09:00N 39°59' W 075°06'0 0.3
2018-Aug-06 08:30N 39°59' W 075°06'3 6.9
2018-Aug-06 08:00N 39°56' W 075°08'3 6.4
2018-Aug-06 07:30N 39°53' W 075°10'3 5.1
2018-Aug-06 07:00N 39°54' W 075°13'1 0.1
2018-Aug-05 17:55N 39°54' W 075°12'3 6.9
2018-Aug-05 17:31N 39°54' W 075°08'4 7.1
2018-Aug-05 17:00N 39°57' W 075°08'0 0.1
2018-Aug-05 16:31N 39°57' W 075°08'1 1.2
2018-Aug-05 16:00N 39°57' W 075°08'4 7.2
2018-Aug-05 15:30N 39°53' W 075°08'3 6.6
2018-Aug-05 15:00N 39°52' W 075°13'4 4.2
2018-Aug-05 14:00N 39°51' W 075°18'3 6.2
2018-Aug-05 13:30N 39°50' W 075°22'1 1.1
2018-Aug-05 13:00N 39°50' W 075°22'0 0.0
2018-Aug-05 12:30N 39°50' W 075°22'0 0.4
2018-Aug-05 12:00N 39°49' W 075°21'2 3.7
2018-Aug-05 11:30N 39°51' W 075°20'2 3.8
2018-Aug-05 11:00N 39°51' W 075°17'4 8.9
2018-Aug-05 10:30N 39°53' W 075°12'1 0.1
2018-Aug-04 20:56N 39°54' W 075°12'1 1.9
2018-Aug-04 20:30N 39°54' W 075°13'1 2.9
2018-Aug-04 20:01N 39°53' W 075°12'3 5.9
2018-Aug-04 19:30N 39°54' W 075°08'3 7.0
2018-Aug-04 19:01N 39°57' W 075°08'  
Track history (hours):
 
Tides and Currents Weather Stations Pressure Air Temp Water Temp Dewpoint Dewpoint Depression Visibility Wind Speed Wind Dir Waves Ship Positions

High Roller

Owner: HAYS TUG & LAUNCH SERVICE INC, WALLINGFORD, PA. More information available from US FCC via Universal Licensing System and Coast Guard Vessel Documentation Center.

Last reported at 2018-Aug-14 19:00 UTC. Time now 2018-Aug-14 19:27 UTC.
Position N 39°59' W 075°05'.

Length 33 m.

Type: Tug. MMSI: 367120550.

Date/timePositionNaut miles runAvg speedWind from/ knotsBaromVisibWave heightAir tempDewpointWater temp
2018-Aug-14 19:00N 39°59' W 075°05'0 0.0
2018-Aug-14 18:29N 39°59' W 075°05'0 0.0
2018-Aug-14 18:00N 39°59' W 075°05'0 0.0
2018-Aug-14 17:31N 39°59' W 075°05'1 1.0
2018-Aug-14 17:00N 39°59' W 075°05'4 7.5
2018-Aug-14 16:30N 39°56' W 075°08'3 6.4
2018-Aug-14 16:00N 39°53' W 075°10'3 6.8
2018-Aug-14 15:31N 39°51' W 075°14'4 7.7
2018-Aug-14 15:00N 39°51' W 075°19'3 6.5
2018-Aug-14 14:30N 39°50' W 075°23'1 1.3
2018-Aug-14 14:01N 39°50' W 075°22'2 5.0
2018-Aug-14 13:31N 39°51' W 075°19'1 2.8
2018-Aug-14 13:00N 39°51' W 075°18'0 0.4
2018-Aug-14 12:30N 39°51' W 075°18'0 0.1
2018-Aug-14 12:00N 39°51' W 075°18'0 0.5
2018-Aug-14 11:30N 39°51' W 075°18'0 0.0
2018-Aug-14 11:00N 39°51' W 075°18'2 3.6
2018-Aug-14 10:30N 39°51' W 075°16'4 8.3
2018-Aug-14 10:01N 39°54' W 075°12'1 2.9
2018-Aug-14 09:30N 39°53' W 075°10'4 7.8
2018-Aug-14 09:00N 39°57' W 075°08'4 7.2
2018-Aug-14 08:30N 39°59' W 075°05'0 0.5
2018-Aug-14 08:00N 39°59' W 075°05'4 8.6
2018-Aug-14 07:30N 39°55' W 075°08'4 7.1
2018-Aug-14 07:01N 39°53' W 075°12'1 2.3
2018-Aug-14 06:30N 39°54' W 075°13'1 1.6
2018-Aug-14 06:01N 39°54' W 075°12'1 0.1
2018-Aug-13 21:12N 39°54' W 075°13'0 0.2
2018-Aug-13 21:00N 39°54' W 075°13'1 2.6
2018-Aug-13 20:30N 39°53' W 075°12'3 5.2
2018-Aug-13 20:00N 39°53' W 075°08'3 5.0
2018-Aug-13 19:31N 39°56' W 075°08'2 4.2
2018-Aug-13 19:00N 39°58' W 075°07'2 4.2
2018-Aug-13 18:30N 39°59' W 075°05'0 0.8
2018-Aug-13 18:00N 39°59' W 075°05'0 0.0
2018-Aug-13 17:30N 39°59' W 075°05'0 0.0
2018-Aug-13 17:00N 39°59' W 075°05'0 0.0
2018-Aug-13 16:30N 39°59' W 075°05'0 0.0
2018-Aug-13 15:59N 39°59' W 075°05'0 0.3
2018-Aug-13 15:30N 39°59' W 075°05'4 7.8
2018-Aug-13 15:00N 39°56' W 075°08'3 6.9
2018-Aug-13 14:30N 39°53' W 075°10'4 8.1
2018-Aug-13 14:00N 39°51' W 075°15'2 4.7
2018-Aug-13 13:30N 39°51' W 075°18'0 0.0
2018-Aug-13 13:00N 39°51' W 075°18'0 0.0
2018-Aug-13 12:30N 39°51' W 075°18'0 0.0
2018-Aug-13 12:00N 39°51' W 075°18'0 0.0
2018-Aug-13 11:30N 39°51' W 075°18'0 0.0
2018-Aug-13 11:00N 39°51' W 075°18'3 5.1
2018-Aug-13 10:30N 39°51' W 075°15'3 0.5
2018-Aug-13 03:20N 39°54' W 075°12'3 8.3
2018-Aug-13 03:00N 39°52' W 075°14'510.8
2018-Aug-13 02:30N 39°51' W 075°21'510.8
2018-Aug-13 02:00N 39°48' W 075°27'5 9.3
2018-Aug-13 01:30N 39°44' W 075°30'4 8.8
2018-Aug-13 01:00N 39°40' W 075°32'4 7.6
2018-Aug-13 00:30N 39°36' W 075°34'4 8.0
2018-Aug-13 00:00N 39°32' W 075°33'4 7.4
2018-Aug-12 23:30N 39°29' W 075°33'0 0.9
2018-Aug-12 23:00N 39°29' W 075°33'1 1.5
2018-Aug-12 22:30N 39°30' W 075°33'4 7.1
2018-Aug-12 22:00N 39°33' W 075°33'5 9.4
2018-Aug-12 21:30N 39°38' W 075°34'5 9.8
2018-Aug-12 21:00N 39°42' W 075°31'5 9.3
2018-Aug-12 20:30N 39°46' W 075°28'4 8.4
2018-Aug-12 20:00N 39°49' W 075°24'4 7.8
2018-Aug-12 19:30N 39°51' W 075°20'3 6.8
2018-Aug-12 19:00N 39°51' W 075°16'3 6.6
2018-Aug-12 18:30N 39°53' W 075°12'3 5.5
2018-Aug-12 18:00N 39°53' W 075°08'3 5.6
2018-Aug-12 17:30N 39°56' W 075°08'1 2.7
2018-Aug-12 17:00N 39°57' W 075°08'0 0.0
2018-Aug-12 14:08N 39°57' W 075°08'0 0.0
2018-Aug-12 14:00N 39°57' W 075°08'0 0.0
2018-Aug-12 13:30N 39°57' W 075°08'0 0.0
2018-Aug-12 13:01N 39°57' W 075°08'0 0.6
2018-Aug-12 12:30N 39°57' W 075°08'3 5.8
2018-Aug-12 12:00N 39°59' W 075°05'0 0.5
2018-Aug-12 11:30N 39°59' W 075°05'2 4.8
2018-Aug-12 11:00N 39°58' W 075°07'3 5.6
2018-Aug-12 10:30N 39°55' W 075°08'3 5.1
2018-Aug-12 10:00N 39°53' W 075°09'3 5.6
2018-Aug-12 09:30N 39°54' W 075°13'1 1.5
2018-Aug-12 09:00N 39°54' W 075°12'0 0.0
2018-Aug-11 22:22N 39°54' W 075°12'1 2.2
2018-Aug-11 22:00N 39°54' W 075°13'1 2.6
2018-Aug-11 21:31N 39°53' W 075°12'3 6.9
2018-Aug-11 21:00N 39°55' W 075°08'4 7.6
2018-Aug-11 20:30N 39°58' W 075°07'2 3.4
2018-Aug-11 20:00N 39°59' W 075°05'4 7.5
2018-Aug-11 19:30N 39°56' W 075°08'4 7.4
2018-Aug-11 19:00N 39°53' W 075°10'5 9.3
2018-Aug-11 18:30N 39°51' W 075°16'2 3.6
2018-Aug-11 18:00N 39°51' W 075°18'0 0.2
2018-Aug-11 17:31N 39°51' W 075°18'0 0.0
2018-Aug-11 17:00N 39°51' W 075°18'1 2.4
2018-Aug-11 16:31N 39°51' W 075°16'4 7.3
2018-Aug-11 16:00N 39°53' W 075°12'3 6.5
2018-Aug-11 15:30N 39°54' W 075°08'4 7.3
2018-Aug-11 15:00N 39°58' W 075°08'3 5.8
2018-Aug-11 14:30N 39°59' W 075°05'0 0.0
2018-Aug-11 14:00N 39°59' W 075°05'0 0.0
2018-Aug-11 13:30N 39°59' W 075°05'0 0.0
2018-Aug-11 13:00N 39°59' W 075°05'0 0.0
2018-Aug-11 12:30N 39°59' W 075°05'0 0.0
2018-Aug-11 12:00N 39°59' W 075°05'0 0.0
2018-Aug-11 11:30N 39°59' W 075°05'0 0.0
2018-Aug-11 11:00N 39°59' W 075°05'3 5.4
2018-Aug-11 10:30N 39°58' W 075°08'3 6.7
2018-Aug-11 10:00N 39°54' W 075°08'3 5.8
2018-Aug-11 09:30N 39°53' W 075°11'2 3.4
2018-Aug-11 09:00N 39°54' W 075°13'1 0.1
2018-Aug-11 02:20N 39°54' W 075°12'2 7.2
2018-Aug-11 02:00N 39°52' W 075°14'510.3
2018-Aug-11 01:30N 39°51' W 075°20'0 0.3
2018-Aug-11 01:00N 39°51' W 075°20'0 0.8
2018-Aug-11 00:30N 39°51' W 075°20'0 0.7
2018-Aug-11 00:00N 39°51' W 075°19'1 2.0
2018-Aug-10 23:30N 39°51' W 075°18'3 5.4
2018-Aug-10 23:00N 39°51' W 075°14'3 5.9
2018-Aug-10 22:30N 39°53' W 075°12'0 0.0
2018-Aug-10 22:01N 39°53' W 075°12'0 0.0
2018-Aug-10 21:30N 39°53' W 075°12'0 0.4
2018-Aug-10 21:00N 39°54' W 075°12'1 2.5
2018-Aug-10 20:30N 39°52' W 075°12'4 8.1
2018-Aug-10 20:00N 39°51' W 075°17'1 2.6
2018-Aug-10 19:31N 39°51' W 075°19'2 4.8
2018-Aug-10 19:00N 39°49' W 075°21'2 3.2
2018-Aug-10 18:30N 39°51' W 075°20'2 4.0
2018-Aug-10 18:00N 39°51' W 075°18'0 0.1
2018-Aug-10 17:30N 39°51' W 075°18'2 4.4
2018-Aug-10 17:00N 39°51' W 075°15'3 6.8
2018-Aug-10 16:30N 39°53' W 075°12'0 0.0
2018-Aug-09 20:39N 39°54' W 075°12'0 0.0
2018-Aug-09 20:30N 39°54' W 075°12'1 1.4
2018-Aug-09 20:00N 39°54' W 075°13'1 3.0
2018-Aug-09 19:30N 39°53' W 075°11'3 6.3
2018-Aug-09 19:00N 39°55' W 075°08'4 8.1
2018-Aug-09 18:31N 39°58' W 075°06'1 2.3
2018-Aug-09 18:00N 39°59' W 075°05'0 0.0
2018-Aug-09 17:30N 39°59' W 075°05'1 2.3
2018-Aug-09 17:00N 39°58' W 075°06'4 8.6
2018-Aug-09 16:31N 39°54' W 075°08'5 9.1
2018-Aug-09 16:00N 39°52' W 075°13'4 7.9
2018-Aug-09 15:30N 39°51' W 075°18'4 7.7
2018-Aug-09 15:00N 39°50' W 075°23'0 0.3
2018-Aug-09 14:31N 39°50' W 075°23'0 0.1
2018-Aug-09 14:00N 39°50' W 075°23'2 3.3
2018-Aug-09 13:30N 39°51' W 075°21'2 3.7
2018-Aug-09 13:00N 39°51' W 075°19'2 4.2
2018-Aug-09 12:30N 39°51' W 075°16'3 5.1
2018-Aug-09 12:00N 39°52' W 075°13'0 0.3
2018-Aug-09 11:30N 39°52' W 075°13'510.0
2018-Aug-09 11:01N 39°55' W 075°08'5 8.8
2018-Aug-09 10:28N 39°59' W 075°05'2 3.6
2018-Aug-09 10:00N 39°58' W 075°07'3 6.8
2018-Aug-09 09:30N 39°55' W 075°08'3 5.9
2018-Aug-09 09:00N 39°53' W 075°11'2 3.9
2018-Aug-09 08:29N 39°54' W 075°13'0 0.0
2018-Aug-09 07:59N 39°54' W 075°13'0 0.0
2018-Aug-09 07:29N 39°54' W 075°13'0 0.0
2018-Aug-09 06:59N 39°54' W 075°13'0 0.0
2018-Aug-09 06:29N 39°54' W 075°13'0 0.0
2018-Aug-09 05:59N 39°54' W 075°13'0 0.0
2018-Aug-09 05:29N 39°54' W 075°13'0 0.0
2018-Aug-09 04:56N 39°54' W 075°13'0 0.0
2018-Aug-09 04:29N 39°54' W 075°13'0 0.0
2018-Aug-09 03:59N 39°54' W 075°13'0 0.0
2018-Aug-09 03:29N 39°54' W 075°13'0 0.0
2018-Aug-09 03:00N 39°54' W 075°13'1 1.3
2018-Aug-09 02:30N 39°54' W 075°12'2 4.3
2018-Aug-09 02:00N 39°53' W 075°09'2 4.7
2018-Aug-09 01:31N 39°55' W 075°08'3 5.1
2018-Aug-09 01:00N 39°58' W 075°08'2 4.9
2018-Aug-09 00:30N 39°59' W 075°05'0 0.8
2018-Aug-08 23:57N 39°59' W 075°05'0 0.0
2018-Aug-08 23:30N 39°59' W 075°05'0 0.0
2018-Aug-08 22:57N 39°59' W 075°05'0 0.0
2018-Aug-08 22:30N 39°59' W 075°05'0 0.0
2018-Aug-08 22:00N 39°59' W 075°05'0 0.0
2018-Aug-08 21:30N 39°59' W 075°05'0 0.0
2018-Aug-08 21:00N 39°59' W 075°05'0 0.0
2018-Aug-08 20:30N 39°59' W 075°05'0 0.0
2018-Aug-08 20:00N 39°59' W 075°05'0 0.0
2018-Aug-08 19:30N 39°59' W 075°05'0 0.0
2018-Aug-08 19:00N 39°59' W 075°05'0 0.0
2018-Aug-08 18:30N 39°59' W 075°05'2 4.4
2018-Aug-08 18:00N 39°58' W 075°07'3 6.1
2018-Aug-08 17:30N 39°55' W 075°08'3 5.6
2018-Aug-08 17:00N 39°53' W 075°10'2 4.3
2018-Aug-08 16:30N 39°54' W 075°13'3 5.5
2018-Aug-08 16:00N 39°51' W 075°14'3 5.2
2018-Aug-08 15:30N 39°51' W 075°18'0 0.2
2018-Aug-08 15:00N 39°51' W 075°18'0 0.1
2018-Aug-08 14:30N 39°51' W 075°18'0 0.1
2018-Aug-08 14:00N 39°51' W 075°18'0 0.1
2018-Aug-08 13:31N 39°51' W 075°18'2 4.9
2018-Aug-08 13:00N 39°51' W 075°15'2 3.2
2018-Aug-08 12:30N 39°52' W 075°13'2 3.5
2018-Aug-08 12:01N 39°51' W 075°15'4 7.6
2018-Aug-08 11:30N 39°51' W 075°20'3 5.6
2018-Aug-08 11:01N 39°50' W 075°23'0 0.0
2018-Aug-08 10:31N 39°50' W 075°23'0 0.0
2018-Aug-08 10:01N 39°50' W 075°23'0 0.0
2018-Aug-08 09:30N 39°50' W 075°23'1 1.9
2018-Aug-08 09:01N 39°50' W 075°22'611.4
2018-Aug-08 08:30N 39°51' W 075°15'3 0.2
2018-Aug-07 18:16N 39°54' W 075°12'0 0.1
2018-Aug-07 18:00N 39°54' W 075°12'0 0.0
2018-Aug-07 17:29N 39°54' W 075°12'0 0.0
2018-Aug-07 17:00N 39°54' W 075°12'0 0.0
2018-Aug-07 16:31N 39°54' W 075°12'0 0.6
2018-Aug-07 16:01N 39°54' W 075°12'0 0.0
2018-Aug-07 15:30N 39°54' W 075°12'1 1.4
2018-Aug-07 15:00N 39°54' W 075°13'0 0.0
2018-Aug-07 14:30N 39°54' W 075°13'0 0.0
2018-Aug-07 14:00N 39°54' W 075°13'0 0.0
2018-Aug-07 13:30N 39°54' W 075°13'0 0.0
2018-Aug-07 13:00N 39°54' W 075°13'2 3.1
2018-Aug-07 12:31N 39°52' W 075°13'4 8.1
2018-Aug-07 12:00N 39°51' W 075°18'0 0.1
2018-Aug-07 11:31N 39°51' W 075°18'2 4.8
2018-Aug-07 11:00N 39°51' W 075°15'3 6.0
2018-Aug-07 10:30N 39°53' W 075°11'3 5.6
2018-Aug-07 10:00N 39°54' W 075°08'3 6.7
2018-Aug-07 09:30N 39°57' W 075°08'3 6.1
2018-Aug-07 09:00N 39°54' W 075°08'3 6.2
2018-Aug-07 08:30N 39°53' W 075°12'1 2.0
2018-Aug-07 08:00N 39°54' W 075°13'2 3.6
2018-Aug-07 07:30N 39°53' W 075°11'3 6.3
2018-Aug-07 07:00N 39°55' W 075°08'4 7.1
2018-Aug-07 06:30N 39°58' W 075°06'1 2.6
2018-Aug-07 05:59N 39°59' W 075°05'0 0.0
2018-Aug-07 05:29N 39°59' W 075°05'0 0.0
2018-Aug-07 04:59N 39°59' W 075°05'0 0.0
2018-Aug-07 04:29N 39°59' W 075°05'0 0.0
2018-Aug-07 03:59N 39°59' W 075°05'0 0.0
2018-Aug-07 03:29N 39°59' W 075°05'0 0.0
2018-Aug-07 02:58N 39°59' W 075°05'0 0.0
2018-Aug-07 02:29N 39°59' W 075°05'0 0.0
2018-Aug-07 01:59N 39°59' W 075°05'0 0.0
2018-Aug-07 01:30N 39°59' W 075°05'3 5.8
2018-Aug-07 01:00N 39°57' W 075°08'0 0.1
2018-Aug-07 00:29N 39°57' W 075°08'0 0.0
2018-Aug-07 00:01N 39°57' W 075°08'2 4.5
2018-Aug-06 23:30N 39°55' W 075°08'4 7.5
2018-Aug-06 23:00N 39°53' W 075°12'5 9.4
2018-Aug-06 22:30N 39°51' W 075°17'4 7.2
2018-Aug-06 22:00N 39°50' W 075°22'0 0.5
2018-Aug-06 21:30N 39°50' W 075°22'510.2
2018-Aug-06 21:01N 39°47' W 075°27'611.8
2018-Aug-06 20:31N 39°42' W 075°31'611.6
2018-Aug-06 20:00N 39°37' W 075°34'4 7.7
2018-Aug-06 19:30N 39°34' W 075°31'2 4.1
2018-Aug-06 19:00N 39°34' W 075°29'1 2.4
2018-Aug-06 18:30N 39°34' W 075°30'2 3.8
2018-Aug-06 18:00N 39°33' W 075°32'3 5.0
2018-Aug-06 17:30N 39°35' W 075°33'3 5.8
2018-Aug-06 17:00N 39°38' W 075°34'3 6.7
2018-Aug-06 16:30N 39°40' W 075°32'3 6.6
2018-Aug-06 16:00N 39°44' W 075°30'3 6.2
2018-Aug-06 15:30N 39°46' W 075°28'3 6.1
2018-Aug-06 15:00N 39°48' W 075°25'3 5.9
2018-Aug-06 14:30N 39°50' W 075°22'3 5.3
2018-Aug-06 14:00N 39°51' W 075°19'2 4.6
2018-Aug-06 13:31N 39°51' W 075°16'2 4.2
2018-Aug-06 13:00N 39°52' W 075°14'2 3.7
2018-Aug-06 12:30N 39°53' W 075°12'1 2.8
2018-Aug-06 12:00N 39°53' W 075°10'0 0.0
2018-Aug-06 11:30N 39°53' W 075°10'0 0.0
2018-Aug-06 11:00N 39°53' W 075°10'0 0.9
2018-Aug-06 10:30N 39°53' W 075°09'0 0.0
2018-Aug-06 10:00N 39°53' W 075°09'2 4.3
2018-Aug-06 09:30N 39°55' W 075°08'4 8.5
2018-Aug-06 09:00N 39°59' W 075°06'0 0.3
2018-Aug-06 08:30N 39°59' W 075°06'3 6.9
2018-Aug-06 08:00N 39°56' W 075°08'3 6.4
2018-Aug-06 07:30N 39°53' W 075°10'3 5.1
2018-Aug-06 07:00N 39°54' W 075°13'1 0.1
2018-Aug-05 17:55N 39°54' W 075°12'3 6.9
2018-Aug-05 17:31N 39°54' W 075°08'4 7.1
2018-Aug-05 17:00N 39°57' W 075°08'0 0.1
2018-Aug-05 16:31N 39°57' W 075°08'1 1.2
2018-Aug-05 16:00N 39°57' W 075°08'4 7.2
2018-Aug-05 15:30N 39°53' W 075°08'3 6.6
2018-Aug-05 15:00N 39°52' W 075°13'4 4.2
2018-Aug-05 14:00N 39°51' W 075°18'3 6.2
2018-Aug-05 13:30N 39°50' W 075°22'1 1.1
2018-Aug-05 13:00N 39°50' W 075°22'0 0.0
2018-Aug-05 12:30N 39°50' W 075°22'0 0.4
2018-Aug-05 12:00N 39°49' W 075°21'2 3.7
2018-Aug-05 11:30N 39°51' W 075°20'2 3.8
2018-Aug-05 11:00N 39°51' W 075°17'4 8.9
2018-Aug-05 10:30N 39°53' W 075°12'1 0.1
2018-Aug-04 20:56N 39°54' W 075°12'1 1.9
2018-Aug-04 20:30N 39°54' W 075°13'1 2.9
2018-Aug-04 20:01N 39°53' W 075°12'3 5.9
2018-Aug-04 19:30N 39°54' W 075°08'3 7.0
2018-Aug-04 19:01N 39°57' W 075°08'  

Dump ship's entire track history